메인 페이지
METAR-TAF:

METAR-TAF

공항 :

Rajahmundry, 인도

위도: 17-06-37N, 경도: 81-49-06E, 고도: 46m

현재 날씨관측

예보는 28분 전, 04:30시(UTC)에 발표되었습니다.
8kt
온도 30°C
습도 75%
기압 1015 hPa
시정: 6000m
고도 2000ft 상공 구름 보통

METAR: VORY 160430Z 09008KT 6000 SCT020 30/25 Q1015 NOSIG

시각: 10:28 (04:58 UTC)


TAF: 누락

4,000개 이상의 공항 관측 자료 및 예보 (METAR 및 TAF 보고).

지도상에서 검색 가능한 기상관측소가 노란 점과 빨간 점으로 표시되어 있습니다.

기상관측소 명을 보려면 표시 위로 마우스를 이동하세요.

날씨 관측과 예보를 보려면 클릭하세요.

지도 변경 : 확대하려면 엑스 표시가 있는 녹색 버튼, 축소하려면 빼기 표시가 있는 녹색 버튼, 다음 페이지의 지도를 보려면 녹색 화살표를 클릭하세요.


METAR-TAF: